AFL3110 UIII-ZBAD
Flight info
| Callsign | AFL3110 |
|---|---|
| Flight time | 2h 18m |
| Altitude | 37000 |
| Route | IDENI4D IDENI A815 SERNA/K0895S1130 Y345 BURKU Y618 INTIK A575 LHT B458 TMR W65 TUSLA W64 ELAPU ELAPU5L |
| Aircraft | B77W/H-SDE1E2E3FGHIJ2J3J4J5M1RWXY/LB1D1 |
Departure
| Time | 2026-04-29 21:42 |
|---|---|
| Airport | Irkutsk International Airport (UIII) |
Arrival
| Time | 2026-04-30 00:01 |
|---|---|
| Airport | Beijing Daxing International Airport (ZBAD) |
| Time | Latitude | Longitude | Altitude | Speed | Heading |
|---|---|---|---|---|---|
| 2026-04-29 20:51 | 52.27104 | 104.36373 | 1636 ft | 0 kts | 18° |
| 2026-04-29 21:27 | 52.27106 | 104.36374 | 1634 ft | 0 kts | 18° |
| 2026-04-29 21:27 | 52.27107 | 104.36375 | 1634 ft | 0 kts | 18° |
| 2026-04-29 21:28 | 52.27121 | 104.36383 | 1638 ft | 4 kts | 18° |
| 2026-04-29 21:28 | 52.27139 | 104.36419 | 1638 ft | 5 kts | 76° |
| 2026-04-29 21:28 | 52.27136 | 104.36472 | 1636 ft | 5 kts | 106° |
| 2026-04-29 21:29 | 52.27126 | 104.36527 | 1638 ft | 5 kts | 106° |
| 2026-04-29 21:29 | 52.27114 | 104.36582 | 1637 ft | 5 kts | 110° |
| 2026-04-29 21:29 | 52.27101 | 104.36639 | 1638 ft | 5 kts | 110° |
| 2026-04-29 21:29 | 52.27088 | 104.36696 | 1638 ft | 5 kts | 110° |
| 2026-04-29 21:30 | 52.27074 | 104.36753 | 1635 ft | 5 kts | 110° |
| 2026-04-29 21:30 | 52.27061 | 104.36810 | 1638 ft | 5 kts | 110° |
| 2026-04-29 21:30 | 52.27048 | 104.36868 | 1634 ft | 5 kts | 110° |
| 2026-04-29 21:30 | 52.27035 | 104.36925 | 1637 ft | 5 kts | 110° |
| 2026-04-29 21:31 | 52.27022 | 104.36982 | 1637 ft | 5 kts | 110° |
| 2026-04-29 21:31 | 52.27008 | 104.37039 | 1635 ft | 5 kts | 110° |
| 2026-04-29 21:31 | 52.26995 | 104.37097 | 1636 ft | 5 kts | 110° |
| 2026-04-29 21:31 | 52.26987 | 104.37156 | 1638 ft | 5 kts | 93° |
| 2026-04-29 21:32 | 52.26993 | 104.37218 | 1637 ft | 6 kts | 79° |
| 2026-04-29 21:32 | 52.26997 | 104.37282 | 1638 ft | 6 kts | 93° |
| 2026-04-29 21:32 | 52.26983 | 104.37345 | 1637 ft | 6 kts | 112° |
| 2026-04-29 21:32 | 52.26968 | 104.37406 | 1638 ft | 6 kts | 112° |
| 2026-04-29 21:33 | 52.26951 | 104.37469 | 1636 ft | 6 kts | 113° |
| 2026-04-29 21:33 | 52.26935 | 104.37531 | 1636 ft | 6 kts | 113° |
| 2026-04-29 21:33 | 52.26918 | 104.37593 | 1637 ft | 6 kts | 114° |
| 2026-04-29 21:33 | 52.26902 | 104.37655 | 1638 ft | 6 kts | 114° |
| 2026-04-29 21:34 | 52.26879 | 104.37741 | 1639 ft | 14 kts | 114° |
| 2026-04-29 21:34 | 52.26824 | 104.37944 | 1642 ft | 21 kts | 113° |
| 2026-04-29 21:34 | 52.26767 | 104.38159 | 1645 ft | 21 kts | 112° |
| 2026-04-29 21:34 | 52.26711 | 104.38375 | 1647 ft | 21 kts | 113° |
| 2026-04-29 21:35 | 52.26653 | 104.38590 | 1650 ft | 21 kts | 115° |
| 2026-04-29 21:35 | 52.26595 | 104.38805 | 1653 ft | 21 kts | 112° |
| 2026-04-29 21:35 | 52.26538 | 104.39021 | 1668 ft | 21 kts | 114° |
| 2026-04-29 21:35 | 52.26483 | 104.39234 | 1669 ft | 21 kts | 114° |
| 2026-04-29 21:36 | 52.26425 | 104.39449 | 1673 ft | 21 kts | 114° |
| 2026-04-29 21:36 | 52.26367 | 104.39664 | 1672 ft | 21 kts | 114° |
| 2026-04-29 21:36 | 52.26309 | 104.39879 | 1677 ft | 21 kts | 114° |
| 2026-04-29 21:36 | 52.26252 | 104.40094 | 1681 ft | 21 kts | 112° |
| 2026-04-29 21:37 | 52.26196 | 104.40311 | 1681 ft | 21 kts | 113° |
| 2026-04-29 21:37 | 52.26139 | 104.40526 | 1680 ft | 21 kts | 114° |
| 2026-04-29 21:37 | 52.26082 | 104.40738 | 1682 ft | 21 kts | 114° |
| 2026-04-29 21:37 | 52.26030 | 104.40933 | 1688 ft | 14 kts | 114° |
| 2026-04-29 21:38 | 52.26006 | 104.41019 | 1690 ft | 7 kts | 114° |
| 2026-04-29 21:38 | 52.25996 | 104.41100 | 1684 ft | 8 kts | 87° |
| 2026-04-29 21:38 | 52.26039 | 104.41186 | 1687 ft | 14 kts | 32° |
| 2026-04-29 21:38 | 52.26136 | 104.41265 | 1686 ft | 14 kts | 21° |
| 2026-04-29 21:39 | 52.26211 | 104.41296 | 1686 ft | 7 kts | 345° |
| 2026-04-29 21:39 | 52.26244 | 104.41228 | 1689 ft | 9 kts | 293° |
| 2026-04-29 21:39 | 52.26249 | 104.41211 | 1691 ft | 0 kts | 293° |
| 2026-04-29 21:39 | 52.26249 | 104.41210 | 1691 ft | 1 kts | 293° |
| 2026-04-29 21:40 | 52.26255 | 104.41189 | 1689 ft | 0 kts | 293° |
| 2026-04-29 21:41 | 52.26255 | 104.41187 | 1691 ft | 0 kts | 293° |
| 2026-04-29 21:41 | 52.26255 | 104.41186 | 1691 ft | 1 kts | 293° |
| 2026-04-29 21:41 | 52.26370 | 104.40755 | 1686 ft | 94 kts | 293° |
| 2026-04-29 21:41 | 52.26697 | 104.39532 | 1675 ft | 153 kts | 293° |
| 2026-04-29 21:42 | 52.27263 | 104.37424 | 1838 ft | 241 kts | 294° |
| 2026-04-29 21:42 | 52.27970 | 104.34835 | 3571 ft | 244 kts | 296° |
| 2026-04-29 21:42 | 52.28639 | 104.32370 | 5640 ft | 233 kts | 297° |
| 2026-04-29 21:42 | 52.29358 | 104.29960 | 6515 ft | 241 kts | 308° |
| 2026-04-29 21:43 | 52.30650 | 104.28225 | 7343 ft | 246 kts | 337° |
| 2026-04-29 21:43 | 52.32338 | 104.27690 | 8308 ft | 252 kts | 359° |
| 2026-04-29 21:43 | 52.34081 | 104.28204 | 9287 ft | 259 kts | 12° |
| 2026-04-29 21:43 | 52.35822 | 104.29063 | 10272 ft | 264 kts | 13° |
| 2026-04-29 21:44 | 52.37611 | 104.29961 | 11032 ft | 276 kts | 13° |
| 2026-04-29 21:44 | 52.39549 | 104.30901 | 11316 ft | 306 kts | 12° |
| 2026-04-29 21:44 | 52.41669 | 104.32000 | 11530 ft | 333 kts | 20° |
| 2026-04-29 21:44 | 52.43633 | 104.34311 | 11985 ft | 363 kts | 44° |
| 2026-04-29 21:45 | 52.44920 | 104.37904 | 12842 ft | 382 kts | 68° |
| 2026-04-29 21:45 | 52.45206 | 104.42294 | 13857 ft | 397 kts | 93° |
| 2026-04-29 21:45 | 52.44642 | 104.46744 | 14685 ft | 403 kts | 101° |
| 2026-04-29 21:45 | 52.43869 | 104.51179 | 15351 ft | 409 kts | 110° |
| 2026-04-29 21:46 | 52.42277 | 104.55122 | 16066 ft | 424 kts | 134° |
| 2026-04-29 21:46 | 52.39897 | 104.57998 | 17015 ft | 429 kts | 152° |
| 2026-04-29 21:46 | 52.37179 | 104.60025 | 17818 ft | 433 kts | 156° |
| 2026-04-29 21:46 | 52.34372 | 104.61983 | 18575 ft | 442 kts | 157° |
| 2026-04-29 21:47 | 52.31544 | 104.63946 | 19498 ft | 442 kts | 156° |
| 2026-04-29 21:47 | 52.28706 | 104.65936 | 20348 ft | 445 kts | 156° |
| 2026-04-29 21:47 | 52.25849 | 104.67965 | 21089 ft | 451 kts | 156° |
| 2026-04-29 21:47 | 52.22954 | 104.70039 | 21818 ft | 457 kts | 156° |
| 2026-04-29 21:48 | 52.20029 | 104.72142 | 22551 ft | 462 kts | 156° |
| 2026-04-29 21:48 | 52.17075 | 104.74262 | 23300 ft | 466 kts | 156° |
| 2026-04-29 21:48 | 52.14118 | 104.76488 | 23995 ft | 471 kts | 152° |
| 2026-04-29 21:48 | 52.11253 | 104.79131 | 24574 ft | 475 kts | 148° |
| 2026-04-29 21:49 | 52.08434 | 104.82004 | 25177 ft | 479 kts | 147° |
| 2026-04-29 21:49 | 52.05620 | 104.84923 | 25793 ft | 481 kts | 147° |
| 2026-04-29 21:49 | 52.02769 | 104.87834 | 26388 ft | 485 kts | 147° |
| 2026-04-29 21:49 | 51.99910 | 104.90685 | 26893 ft | 490 kts | 148° |
| 2026-04-29 21:50 | 51.96978 | 104.93556 | 27427 ft | 495 kts | 148° |
| 2026-04-29 21:50 | 51.94014 | 104.96432 | 27934 ft | 498 kts | 148° |
| 2026-04-29 21:50 | 51.91026 | 104.99328 | 28472 ft | 502 kts | 148° |
| 2026-04-29 21:50 | 51.88023 | 105.02238 | 28960 ft | 505 kts | 148° |
| 2026-04-29 21:51 | 51.84892 | 105.04875 | 29369 ft | 510 kts | 159° |
| 2026-04-29 21:51 | 51.81478 | 105.06516 | 29783 ft | 513 kts | 167° |
| 2026-04-29 21:51 | 51.74488 | 105.09097 | 30726 ft | 514 kts | 167° |
| 2026-04-29 21:52 | 51.71022 | 105.10473 | 31245 ft | 512 kts | 166° |
| 2026-04-29 21:52 | 51.67569 | 105.11932 | 31756 ft | 511 kts | 165° |
| 2026-04-29 21:52 | 51.64133 | 105.13426 | 32221 ft | 510 kts | 165° |
| 2026-04-29 21:52 | 51.60701 | 105.14914 | 32663 ft | 510 kts | 166° |
| 2026-04-29 21:53 | 51.57304 | 105.16573 | 33071 ft | 511 kts | 159° |
| 2026-04-29 21:53 | 51.54177 | 105.19292 | 33439 ft | 511 kts | 147° |
| 2026-04-29 21:53 | 51.51285 | 105.22469 | 33796 ft | 511 kts | 145° |
| 2026-04-29 21:53 | 51.48375 | 105.25768 | 34203 ft | 511 kts | 145° |
| 2026-04-29 21:54 | 51.45459 | 105.29053 | 34599 ft | 511 kts | 146° |
| 2026-04-29 21:54 | 51.42528 | 105.32285 | 34941 ft | 511 kts | 146° |
| 2026-04-29 21:54 | 51.39576 | 105.35474 | 35245 ft | 511 kts | 147° |
| 2026-04-29 21:54 | 51.36617 | 105.38621 | 35584 ft | 511 kts | 147° |
| 2026-04-29 21:55 | 51.33643 | 105.41754 | 35923 ft | 510 kts | 147° |
| 2026-04-29 21:55 | 51.30669 | 105.44875 | 36248 ft | 511 kts | 148° |
| 2026-04-29 21:55 | 51.27702 | 105.47985 | 36535 ft | 511 kts | 148° |
| 2026-04-29 21:55 | 51.24724 | 105.51106 | 36816 ft | 511 kts | 148° |
| 2026-04-29 21:56 | 51.21758 | 105.54213 | 37189 ft | 509 kts | 148° |
| 2026-04-29 21:56 | 51.18798 | 105.57311 | 37342 ft | 512 kts | 148° |
| 2026-04-29 21:56 | 51.12848 | 105.63528 | 37409 ft | 515 kts | 148° |
| 2026-04-29 21:57 | 51.06900 | 105.69726 | 37407 ft | 509 kts | 148° |
| 2026-04-29 21:57 | 51.00984 | 105.75870 | 37429 ft | 507 kts | 149° |
| 2026-04-29 21:58 | 50.95078 | 105.81983 | 37409 ft | 506 kts | 149° |
| 2026-04-29 21:58 | 50.89174 | 105.88077 | 37419 ft | 507 kts | 149° |
| 2026-04-29 21:59 | 50.83252 | 105.94143 | 37432 ft | 508 kts | 150° |
| 2026-04-29 21:59 | 50.77284 | 106.00193 | 37423 ft | 509 kts | 150° |
| 2026-04-29 22:00 | 50.71308 | 106.06237 | 37424 ft | 510 kts | 150° |
| 2026-04-29 22:00 | 50.65331 | 106.12274 | 37401 ft | 511 kts | 150° |
| 2026-04-29 22:01 | 50.59375 | 106.18272 | 37407 ft | 512 kts | 150° |
| 2026-04-29 22:01 | 50.53365 | 106.24306 | 37391 ft | 513 kts | 150° |
| 2026-04-29 22:02 | 50.47346 | 106.30330 | 37394 ft | 513 kts | 150° |
| 2026-04-29 22:02 | 50.41324 | 106.36342 | 37385 ft | 513 kts | 150° |
| 2026-04-29 22:03 | 50.35283 | 106.42319 | 37379 ft | 512 kts | 154° |
| 2026-04-29 22:03 | 50.28778 | 106.46469 | 37398 ft | 501 kts | 170° |
| 2026-04-29 22:04 | 50.21958 | 106.48004 | 37399 ft | 492 kts | 181° |
| 2026-04-29 22:04 | 50.15156 | 106.48660 | 37376 ft | 493 kts | 182° |
| 2026-04-29 22:05 | 50.08304 | 106.49362 | 37392 ft | 492 kts | 181° |
| 2026-04-29 22:06 | 49.99194 | 106.50376 | 37405 ft | 492 kts | 181° |
| 2026-04-29 22:06 | 49.92362 | 106.51154 | 37378 ft | 491 kts | 181° |
| 2026-04-29 22:07 | 49.85595 | 106.51924 | 37403 ft | 490 kts | 181° |
| 2026-04-29 22:07 | 49.78785 | 106.52690 | 37402 ft | 490 kts | 182° |
| 2026-04-29 22:08 | 49.71988 | 106.53448 | 37403 ft | 490 kts | 182° |
| 2026-04-29 22:08 | 49.65185 | 106.54209 | 37391 ft | 489 kts | 182° |
| 2026-04-29 22:09 | 49.58393 | 106.54967 | 37389 ft | 489 kts | 182° |
| 2026-04-29 22:09 | 49.51595 | 106.55723 | 37395 ft | 490 kts | 182° |
| 2026-04-29 22:10 | 49.44792 | 106.56477 | 37358 ft | 490 kts | 181° |
| 2026-04-29 22:10 | 49.38042 | 106.57224 | 37385 ft | 489 kts | 181° |
| 2026-04-29 22:11 | 49.31251 | 106.57972 | 37371 ft | 489 kts | 182° |
| 2026-04-29 22:11 | 49.24461 | 106.58718 | 37372 ft | 489 kts | 182° |
| 2026-04-29 22:12 | 49.17679 | 106.59463 | 37357 ft | 487 kts | 181° |
| 2026-04-29 22:12 | 49.10925 | 106.60204 | 37359 ft | 484 kts | 182° |
| 2026-04-29 22:13 | 49.04214 | 106.60934 | 37346 ft | 482 kts | 182° |
| 2026-04-29 22:13 | 48.97522 | 106.61661 | 37335 ft | 480 kts | 181° |
| 2026-04-29 22:14 | 48.90938 | 106.63513 | 37326 ft | 490 kts | 165° |
| 2026-04-29 22:14 | 48.84963 | 106.68587 | 37346 ft | 502 kts | 148° |
| 2026-04-29 22:15 | 48.79419 | 106.75059 | 37335 ft | 504 kts | 147° |
| 2026-04-29 22:15 | 48.73855 | 106.81560 | 37326 ft | 505 kts | 147° |
| 2026-04-29 22:16 | 48.68258 | 106.87967 | 37305 ft | 505 kts | 148° |
| 2026-04-29 22:16 | 48.62627 | 106.94334 | 37318 ft | 505 kts | 148° |
| 2026-04-29 22:17 | 48.56999 | 107.00670 | 37298 ft | 505 kts | 148° |
| 2026-04-29 22:17 | 48.51364 | 107.07003 | 37283 ft | 504 kts | 148° |
| 2026-04-29 22:18 | 48.45725 | 107.13327 | 37256 ft | 504 kts | 148° |
| 2026-04-29 22:18 | 48.40139 | 107.19574 | 37259 ft | 502 kts | 148° |
| 2026-04-29 22:19 | 48.34527 | 107.25831 | 37259 ft | 501 kts | 148° |
| 2026-04-29 22:19 | 48.28924 | 107.32061 | 37241 ft | 501 kts | 148° |
| 2026-04-29 22:20 | 48.23307 | 107.38294 | 37237 ft | 501 kts | 148° |
| 2026-04-29 22:20 | 48.17701 | 107.44491 | 37223 ft | 500 kts | 148° |
| 2026-04-29 22:21 | 48.12127 | 107.50637 | 37234 ft | 500 kts | 148° |
| 2026-04-29 22:21 | 48.06520 | 107.56804 | 37217 ft | 500 kts | 148° |
| 2026-04-29 22:22 | 48.00904 | 107.62963 | 37227 ft | 500 kts | 148° |
| 2026-04-29 22:22 | 47.95283 | 107.69109 | 37219 ft | 500 kts | 148° |
| 2026-04-29 22:23 | 47.89664 | 107.75238 | 37226 ft | 501 kts | 148° |
| 2026-04-29 22:23 | 47.84030 | 107.81367 | 37217 ft | 501 kts | 148° |
| 2026-04-29 22:24 | 47.78402 | 107.87475 | 37230 ft | 501 kts | 148° |
| 2026-04-29 22:24 | 47.72771 | 107.93564 | 37232 ft | 501 kts | 148° |
| 2026-04-29 22:25 | 47.67161 | 107.99591 | 37239 ft | 501 kts | 148° |
| 2026-04-29 22:25 | 47.61511 | 108.05642 | 37228 ft | 500 kts | 148° |
| 2026-04-29 22:26 | 47.55867 | 108.11675 | 37235 ft | 500 kts | 148° |
| 2026-04-29 22:26 | 47.50197 | 108.17720 | 37243 ft | 500 kts | 148° |
| 2026-04-29 22:27 | 47.44554 | 108.23721 | 37237 ft | 500 kts | 148° |
| 2026-04-29 22:27 | 47.38891 | 108.29728 | 37213 ft | 501 kts | 148° |
| 2026-04-29 22:28 | 47.33271 | 108.35671 | 37232 ft | 500 kts | 148° |
| 2026-04-29 22:28 | 47.27621 | 108.41632 | 37237 ft | 500 kts | 148° |
| 2026-04-29 22:29 | 47.21958 | 108.47590 | 37229 ft | 500 kts | 148° |
| 2026-04-29 22:29 | 47.16298 | 108.53530 | 37238 ft | 499 kts | 148° |
| 2026-04-29 22:30 | 47.10637 | 108.59455 | 37225 ft | 499 kts | 148° |
| 2026-04-29 22:30 | 47.04984 | 108.65357 | 37238 ft | 499 kts | 148° |
| 2026-04-29 22:31 | 46.99322 | 108.71249 | 37245 ft | 499 kts | 148° |
| 2026-04-29 22:31 | 46.93684 | 108.77075 | 37239 ft | 499 kts | 148° |
| 2026-04-29 22:32 | 46.87998 | 108.82931 | 37254 ft | 500 kts | 148° |
| 2026-04-29 22:32 | 46.82310 | 108.88778 | 37246 ft | 500 kts | 148° |
| 2026-04-29 22:33 | 46.76620 | 108.94616 | 37264 ft | 500 kts | 148° |
| 2026-04-29 22:33 | 46.70919 | 109.00449 | 37262 ft | 500 kts | 148° |
| 2026-04-29 22:34 | 46.65222 | 109.06263 | 37263 ft | 500 kts | 148° |
| 2026-04-29 22:34 | 46.59514 | 109.12074 | 37238 ft | 501 kts | 148° |
| 2026-04-29 22:35 | 46.53842 | 109.17832 | 37253 ft | 500 kts | 148° |
| 2026-04-29 22:35 | 46.48125 | 109.23621 | 37246 ft | 500 kts | 148° |
| 2026-04-29 22:36 | 46.42402 | 109.29401 | 37251 ft | 501 kts | 148° |
| 2026-04-29 22:36 | 46.36670 | 109.35174 | 37235 ft | 502 kts | 148° |
| 2026-04-29 22:37 | 46.30963 | 109.40908 | 37217 ft | 502 kts | 148° |
| 2026-04-29 22:37 | 46.25219 | 109.46662 | 37219 ft | 502 kts | 148° |
| 2026-04-29 22:38 | 46.19469 | 109.52409 | 37205 ft | 503 kts | 148° |
| 2026-04-29 22:38 | 46.13706 | 109.58154 | 37197 ft | 503 kts | 148° |
| 2026-04-29 22:39 | 46.07948 | 109.63881 | 37172 ft | 503 kts | 148° |
| 2026-04-29 22:39 | 46.02181 | 109.69601 | 37186 ft | 503 kts | 148° |
| 2026-04-29 22:40 | 45.96426 | 109.75294 | 37167 ft | 502 kts | 148° |
| 2026-04-29 22:40 | 45.90662 | 109.80980 | 37161 ft | 502 kts | 148° |
| 2026-04-29 22:41 | 45.84887 | 109.86664 | 37157 ft | 502 kts | 148° |
| 2026-04-29 22:41 | 45.79130 | 109.92314 | 37161 ft | 502 kts | 148° |
| 2026-04-29 22:42 | 45.73399 | 109.97926 | 37158 ft | 501 kts | 148° |
| 2026-04-29 22:42 | 45.67639 | 110.03554 | 37141 ft | 501 kts | 148° |
| 2026-04-29 22:43 | 45.61872 | 110.09169 | 37151 ft | 501 kts | 148° |
| 2026-04-29 22:43 | 45.56105 | 110.14771 | 37118 ft | 501 kts | 148° |
| 2026-04-29 22:44 | 45.50333 | 110.20366 | 37128 ft | 501 kts | 148° |
| 2026-04-29 22:44 | 45.44604 | 110.25904 | 37119 ft | 501 kts | 148° |
| 2026-04-29 22:45 | 45.38825 | 110.31478 | 37117 ft | 501 kts | 148° |
| 2026-04-29 22:45 | 45.33044 | 110.37039 | 37106 ft | 501 kts | 148° |
| 2026-04-29 22:46 | 45.27270 | 110.42580 | 37082 ft | 501 kts | 148° |
| 2026-04-29 22:46 | 45.21480 | 110.48120 | 37093 ft | 501 kts | 148° |
| 2026-04-29 22:47 | 45.15720 | 110.53620 | 37095 ft | 501 kts | 148° |
| 2026-04-29 22:47 | 45.09933 | 110.59133 | 37091 ft | 501 kts | 148° |
| 2026-04-29 22:48 | 45.04137 | 110.64639 | 37073 ft | 501 kts | 148° |
| 2026-04-29 22:48 | 44.98346 | 110.70126 | 37078 ft | 501 kts | 148° |
| 2026-04-29 22:49 | 44.92552 | 110.75603 | 37072 ft | 501 kts | 148° |
| 2026-04-29 22:49 | 44.86758 | 110.81068 | 37064 ft | 501 kts | 148° |
| 2026-04-29 22:50 | 44.80947 | 110.86535 | 37053 ft | 501 kts | 148° |
| 2026-04-29 22:50 | 44.75185 | 110.91940 | 37048 ft | 501 kts | 148° |
| 2026-04-29 22:51 | 44.69380 | 110.97373 | 37048 ft | 501 kts | 148° |
| 2026-04-29 22:51 | 44.60673 | 111.05501 | 37031 ft | 501 kts | 148° |
| 2026-04-29 22:52 | 44.55838 | 111.10000 | 37013 ft | 501 kts | 148° |
| 2026-04-29 22:52 | 44.50029 | 111.15392 | 37018 ft | 501 kts | 147° |
| 2026-04-29 22:53 | 44.43280 | 111.21642 | 37012 ft | 500 kts | 147° |
| 2026-04-29 22:53 | 44.38409 | 111.26144 | 37000 ft | 501 kts | 147° |
| 2026-04-29 22:54 | 44.32625 | 111.31475 | 36998 ft | 500 kts | 147° |
| 2026-04-29 22:54 | 44.26803 | 111.36829 | 37010 ft | 500 kts | 147° |
| 2026-04-29 22:55 | 44.20986 | 111.42165 | 37010 ft | 500 kts | 147° |
| 2026-04-29 22:55 | 44.15165 | 111.47493 | 37020 ft | 500 kts | 147° |
| 2026-04-29 22:56 | 44.09342 | 111.52809 | 37015 ft | 500 kts | 147° |
| 2026-04-29 22:56 | 44.03560 | 111.58075 | 37031 ft | 500 kts | 147° |
| 2026-04-29 22:57 | 43.97735 | 111.63368 | 37031 ft | 499 kts | 147° |
| 2026-04-29 22:57 | 43.91920 | 111.68641 | 37029 ft | 499 kts | 147° |
| 2026-04-29 22:58 | 43.86103 | 111.73902 | 37034 ft | 499 kts | 147° |
| 2026-04-29 22:58 | 43.80281 | 111.79154 | 37037 ft | 499 kts | 146° |
| 2026-04-29 22:59 | 43.74467 | 111.84390 | 37039 ft | 499 kts | 146° |
| 2026-04-29 22:59 | 43.68646 | 111.89619 | 37040 ft | 499 kts | 146° |
| 2026-04-29 23:00 | 43.62783 | 111.94649 | 37045 ft | 499 kts | 149° |
| 2026-04-29 23:00 | 43.56819 | 111.99557 | 37043 ft | 499 kts | 148° |
| 2026-04-29 23:01 | 43.50878 | 112.04533 | 37042 ft | 500 kts | 147° |
| 2026-04-29 23:01 | 43.44970 | 112.09582 | 37037 ft | 500 kts | 147° |
| 2026-04-29 23:02 | 43.38953 | 112.14392 | 37033 ft | 500 kts | 153° |
| 2026-04-29 23:02 | 43.32687 | 112.18562 | 37049 ft | 500 kts | 154° |
| 2026-04-29 23:03 | 43.26400 | 112.22701 | 37039 ft | 501 kts | 154° |
| 2026-04-29 23:03 | 43.20119 | 112.26869 | 37035 ft | 502 kts | 153° |
| 2026-04-29 23:04 | 43.13844 | 112.31050 | 37028 ft | 502 kts | 153° |
| 2026-04-29 23:04 | 43.07559 | 112.35232 | 37053 ft | 502 kts | 153° |
| 2026-04-29 23:05 | 43.01265 | 112.39409 | 37044 ft | 503 kts | 153° |
| 2026-04-29 23:05 | 42.95003 | 112.43552 | 37037 ft | 503 kts | 153° |
| 2026-04-29 23:06 | 42.88696 | 112.47716 | 37041 ft | 503 kts | 153° |
| 2026-04-29 23:06 | 42.82385 | 112.51873 | 37041 ft | 503 kts | 153° |
| 2026-04-29 23:07 | 42.76089 | 112.56011 | 37042 ft | 503 kts | 153° |
| 2026-04-29 23:07 | 42.69783 | 112.60145 | 37034 ft | 503 kts | 153° |
| 2026-04-29 23:08 | 42.63484 | 112.64266 | 37047 ft | 502 kts | 153° |
| 2026-04-29 23:08 | 42.57183 | 112.68380 | 37048 ft | 502 kts | 153° |
| 2026-04-29 23:09 | 42.50925 | 112.72456 | 37054 ft | 502 kts | 153° |
| 2026-04-29 23:09 | 42.44615 | 112.76556 | 37060 ft | 502 kts | 153° |
| 2026-04-29 23:10 | 42.38311 | 112.80644 | 37067 ft | 502 kts | 153° |
| 2026-04-29 23:10 | 42.31999 | 112.84727 | 37065 ft | 502 kts | 153° |
| 2026-04-29 23:11 | 42.25695 | 112.88797 | 37077 ft | 502 kts | 153° |
| 2026-04-29 23:11 | 42.19398 | 112.92853 | 37077 ft | 501 kts | 153° |
| 2026-04-29 23:12 | 42.13132 | 112.96880 | 37085 ft | 501 kts | 153° |
| 2026-04-29 23:12 | 42.06829 | 113.00922 | 37092 ft | 501 kts | 153° |
| 2026-04-29 23:13 | 42.00531 | 113.04952 | 37097 ft | 501 kts | 153° |
| 2026-04-29 23:13 | 41.94227 | 113.08979 | 37097 ft | 501 kts | 153° |
| 2026-04-29 23:14 | 41.87890 | 113.12908 | 37097 ft | 502 kts | 158° |
| 2026-04-29 23:14 | 41.81118 | 113.14993 | 37112 ft | 504 kts | 174° |
| 2026-04-29 23:15 | 41.74095 | 113.14969 | 37107 ft | 505 kts | 182° |
| 2026-04-29 23:15 | 41.67060 | 113.14495 | 37100 ft | 505 kts | 182° |
| 2026-04-29 23:16 | 41.60028 | 113.14076 | 37100 ft | 506 kts | 182° |
| 2026-04-29 23:16 | 41.52991 | 113.13717 | 37093 ft | 506 kts | 182° |
| 2026-04-29 23:17 | 41.45992 | 113.13375 | 37093 ft | 507 kts | 182° |
| 2026-04-29 23:17 | 41.38938 | 113.13030 | 37092 ft | 507 kts | 182° |
| 2026-04-29 23:18 | 41.31881 | 113.12681 | 37089 ft | 507 kts | 182° |
| 2026-04-29 23:18 | 41.24828 | 113.12332 | 37095 ft | 507 kts | 182° |
| 2026-04-29 23:19 | 41.17775 | 113.11984 | 37086 ft | 507 kts | 182° |
| 2026-04-29 23:19 | 41.10729 | 113.11637 | 37095 ft | 507 kts | 182° |
| 2026-04-29 23:20 | 41.03681 | 113.11291 | 37100 ft | 507 kts | 182° |
| 2026-04-29 23:20 | 40.96670 | 113.10948 | 37093 ft | 507 kts | 182° |
| 2026-04-29 23:21 | 40.89621 | 113.10604 | 37066 ft | 507 kts | 182° |
| 2026-04-29 23:21 | 40.82564 | 113.10265 | 37090 ft | 507 kts | 182° |
| 2026-04-29 23:22 | 40.75504 | 113.09926 | 37098 ft | 508 kts | 182° |
| 2026-04-29 23:22 | 40.68479 | 113.09589 | 37095 ft | 508 kts | 182° |
| 2026-04-29 23:23 | 40.61401 | 113.09249 | 37094 ft | 509 kts | 182° |
| 2026-04-29 23:23 | 40.54315 | 113.08911 | 37095 ft | 509 kts | 182° |
| 2026-04-29 23:24 | 40.47231 | 113.08577 | 37094 ft | 507 kts | 180° |
| 2026-04-29 23:24 | 40.43727 | 113.09019 | 37082 ft | 505 kts | 163° |
| 2026-04-29 23:24 | 40.40506 | 113.10767 | 37130 ft | 500 kts | 146° |
| 2026-04-29 23:25 | 40.37818 | 113.13610 | 37102 ft | 495 kts | 129° |
| 2026-04-29 23:25 | 40.35791 | 113.17156 | 37114 ft | 491 kts | 118° |
| 2026-04-29 23:25 | 40.33369 | 113.25408 | 37104 ft | 482 kts | 96° |
| 2026-04-29 23:26 | 40.32715 | 113.34125 | 37104 ft | 480 kts | 90° |
| 2026-04-29 23:26 | 40.32349 | 113.42875 | 37100 ft | 482 kts | 90° |
| 2026-04-29 23:27 | 40.31835 | 113.51605 | 37086 ft | 483 kts | 92° |
| 2026-04-29 23:27 | 40.31209 | 113.60374 | 37085 ft | 483 kts | 92° |
| 2026-04-29 23:28 | 40.30557 | 113.69141 | 37079 ft | 483 kts | 92° |
| 2026-04-29 23:28 | 40.29909 | 113.77890 | 37089 ft | 482 kts | 92° |
| 2026-04-29 23:29 | 40.29261 | 113.86617 | 37081 ft | 481 kts | 92° |
| 2026-04-29 23:29 | 40.28607 | 113.95331 | 37082 ft | 480 kts | 92° |
| 2026-04-29 23:30 | 40.27949 | 114.04028 | 37091 ft | 480 kts | 92° |
| 2026-04-29 23:30 | 40.27334 | 114.12720 | 37093 ft | 479 kts | 91° |
| 2026-04-29 23:31 | 40.26981 | 114.21418 | 37085 ft | 477 kts | 90° |
| 2026-04-29 23:31 | 40.26671 | 114.30107 | 37086 ft | 477 kts | 90° |
| 2026-04-29 23:32 | 40.26321 | 114.38728 | 37105 ft | 478 kts | 90° |
| 2026-04-29 23:32 | 40.25940 | 114.47419 | 37087 ft | 478 kts | 90° |
| 2026-04-29 23:33 | 40.25547 | 114.56104 | 37085 ft | 478 kts | 90° |
| 2026-04-29 23:33 | 40.25150 | 114.64779 | 37084 ft | 477 kts | 90° |
| 2026-04-29 23:34 | 40.24748 | 114.73449 | 37088 ft | 477 kts | 90° |
| 2026-04-29 23:34 | 40.24339 | 114.82129 | 37085 ft | 477 kts | 90° |
| 2026-04-29 23:35 | 40.23924 | 114.90796 | 37083 ft | 477 kts | 91° |
| 2026-04-29 23:35 | 40.23714 | 114.95161 | 36488 ft | 486 kts | 91° |
| 2026-04-29 23:35 | 40.23498 | 114.99591 | 35818 ft | 486 kts | 90° |
| 2026-04-29 23:36 | 40.23280 | 115.04009 | 34983 ft | 485 kts | 90° |
| 2026-04-29 23:36 | 40.23060 | 115.08405 | 34160 ft | 484 kts | 90° |
| 2026-04-29 23:36 | 40.22841 | 115.12770 | 33404 ft | 479 kts | 90° |
| 2026-04-29 23:36 | 40.22622 | 115.17111 | 32303 ft | 479 kts | 90° |
| 2026-04-29 23:37 | 40.22402 | 115.21498 | 31049 ft | 486 kts | 90° |
| 2026-04-29 23:37 | 40.22179 | 115.25839 | 30288 ft | 481 kts | 91° |
| 2026-04-29 23:37 | 40.21956 | 115.30182 | 29476 ft | 475 kts | 91° |
| 2026-04-29 23:37 | 40.21734 | 115.34461 | 28744 ft | 469 kts | 90° |
| 2026-04-29 23:38 | 40.21513 | 115.38694 | 28064 ft | 462 kts | 91° |
| 2026-04-29 23:38 | 40.21030 | 115.42801 | 27381 ft | 458 kts | 104° |
| 2026-04-29 23:38 | 40.19643 | 115.46564 | 26730 ft | 462 kts | 121° |
| 2026-04-29 23:38 | 40.17464 | 115.49656 | 26097 ft | 465 kts | 136° |
| 2026-04-29 23:39 | 40.14808 | 115.52064 | 25495 ft | 465 kts | 148° |
| 2026-04-29 23:39 | 40.11795 | 115.53582 | 24886 ft | 463 kts | 163° |
| 2026-04-29 23:39 | 40.08667 | 115.54531 | 24318 ft | 460 kts | 165° |
| 2026-04-29 23:39 | 40.05546 | 115.55446 | 23702 ft | 457 kts | 164° |
| 2026-04-29 23:40 | 40.02501 | 115.56373 | 23036 ft | 454 kts | 164° |
| 2026-04-29 23:40 | 39.99403 | 115.57356 | 22389 ft | 450 kts | 163° |
| 2026-04-29 23:40 | 39.96381 | 115.58342 | 21804 ft | 445 kts | 163° |
| 2026-04-29 23:40 | 39.93422 | 115.59318 | 21209 ft | 442 kts | 163° |
| 2026-04-29 23:41 | 39.90450 | 115.60295 | 20638 ft | 438 kts | 163° |
| 2026-04-29 23:41 | 39.87501 | 115.61261 | 20073 ft | 435 kts | 163° |
| 2026-04-29 23:41 | 39.84571 | 115.62218 | 19499 ft | 433 kts | 163° |
| 2026-04-29 23:41 | 39.81656 | 115.63171 | 18933 ft | 431 kts | 163° |
| 2026-04-29 23:42 | 39.79694 | 115.63811 | 18556 ft | 429 kts | 163° |
| 2026-04-29 23:42 | 39.76837 | 115.64743 | 17929 ft | 427 kts | 163° |
| 2026-04-29 23:42 | 39.73966 | 115.65679 | 17325 ft | 424 kts | 163° |
| 2026-04-29 23:42 | 39.71109 | 115.66612 | 16746 ft | 421 kts | 163° |
| 2026-04-29 23:43 | 39.68274 | 115.67532 | 16162 ft | 418 kts | 163° |
| 2026-04-29 23:43 | 39.65455 | 115.68447 | 15599 ft | 416 kts | 163° |
| 2026-04-29 23:43 | 39.62660 | 115.69357 | 15029 ft | 413 kts | 163° |
| 2026-04-29 23:43 | 39.59871 | 115.70262 | 14471 ft | 411 kts | 164° |
| 2026-04-29 23:44 | 39.57106 | 115.71159 | 13916 ft | 409 kts | 164° |
| 2026-04-29 23:44 | 39.54347 | 115.72053 | 13313 ft | 407 kts | 164° |
| 2026-04-29 23:44 | 39.51697 | 115.73020 | 12721 ft | 394 kts | 156° |
| 2026-04-29 23:44 | 39.49419 | 115.74883 | 12206 ft | 384 kts | 134° |
| 2026-04-29 23:45 | 39.47827 | 115.77587 | 11743 ft | 374 kts | 114° |
| 2026-04-29 23:45 | 39.46917 | 115.80669 | 11527 ft | 362 kts | 102° |
| 2026-04-29 23:45 | 39.46510 | 115.83839 | 11313 ft | 351 kts | 88° |
| 2026-04-29 23:45 | 39.46754 | 115.86891 | 11076 ft | 334 kts | 77° |
| 2026-04-29 23:46 | 39.47132 | 115.89816 | 10842 ft | 327 kts | 78° |
| 2026-04-29 23:46 | 39.47493 | 115.92694 | 10617 ft | 320 kts | 78° |
| 2026-04-29 23:46 | 39.47833 | 115.95509 | 10412 ft | 313 kts | 78° |
| 2026-04-29 23:46 | 39.48154 | 115.98266 | 10211 ft | 307 kts | 78° |
| 2026-04-29 23:47 | 39.48463 | 116.00967 | 10013 ft | 301 kts | 78° |
| 2026-04-29 23:47 | 39.48761 | 116.03609 | 9917 ft | 290 kts | 78° |
| 2026-04-29 23:47 | 39.49051 | 116.06185 | 9635 ft | 287 kts | 78° |
| 2026-04-29 23:47 | 39.49410 | 116.08675 | 9430 ft | 274 kts | 66° |
| 2026-04-29 23:48 | 39.50424 | 116.10667 | 9252 ft | 262 kts | 39° |
| 2026-04-29 23:48 | 39.51963 | 116.11838 | 9107 ft | 257 kts | 19° |
| 2026-04-29 23:48 | 39.53699 | 116.12344 | 8930 ft | 256 kts | 1° |
| 2026-04-29 23:48 | 39.55477 | 116.12211 | 8788 ft | 257 kts | 353° |
| 2026-04-29 23:49 | 39.57255 | 116.11913 | 8613 ft | 258 kts | 352° |
| 2026-04-29 23:49 | 39.59022 | 116.11599 | 8446 ft | 260 kts | 352° |
| 2026-04-29 23:49 | 39.60821 | 116.11287 | 8275 ft | 261 kts | 353° |
| 2026-04-29 23:49 | 39.62624 | 116.10986 | 8111 ft | 262 kts | 353° |
| 2026-04-29 23:50 | 39.64444 | 116.10694 | 7934 ft | 263 kts | 353° |
| 2026-04-29 23:50 | 39.66265 | 116.10407 | 7761 ft | 263 kts | 353° |
| 2026-04-29 23:50 | 39.69904 | 116.09840 | 7424 ft | 263 kts | 353° |
| 2026-04-29 23:51 | 39.71716 | 116.09560 | 7248 ft | 262 kts | 353° |
| 2026-04-29 23:51 | 39.73515 | 116.09390 | 7057 ft | 256 kts | 6° |
| 2026-04-29 23:51 | 39.75166 | 116.10173 | 6906 ft | 255 kts | 34° |
| 2026-04-29 23:51 | 39.76367 | 116.11866 | 6708 ft | 258 kts | 57° |
| 2026-04-29 23:52 | 39.77019 | 116.14038 | 6509 ft | 261 kts | 77° |
| 2026-04-29 23:52 | 39.77265 | 116.16349 | 6356 ft | 260 kts | 82° |
| 2026-04-29 23:52 | 39.77457 | 116.18682 | 6084 ft | 258 kts | 82° |
| 2026-04-29 23:52 | 39.77647 | 116.20985 | 5881 ft | 254 kts | 82° |
| 2026-04-29 23:53 | 39.77841 | 116.23248 | 5668 ft | 249 kts | 82° |
| 2026-04-29 23:53 | 39.78044 | 116.25464 | 5468 ft | 244 kts | 81° |
| 2026-04-29 23:53 | 39.78249 | 116.27637 | 5275 ft | 241 kts | 82° |
| 2026-04-29 23:53 | 39.78452 | 116.29787 | 5080 ft | 239 kts | 82° |
| 2026-04-29 23:54 | 39.78599 | 116.31907 | 4871 ft | 230 kts | 94° |
| 2026-04-29 23:54 | 39.78054 | 116.33741 | 4743 ft | 216 kts | 131° |
| 2026-04-29 23:54 | 39.76857 | 116.34752 | 4585 ft | 201 kts | 164° |
| 2026-04-29 23:54 | 39.75523 | 116.35065 | 4402 ft | 189 kts | 174° |
| 2026-04-29 23:55 | 39.74238 | 116.35247 | 4260 ft | 185 kts | 174° |
| 2026-04-29 23:55 | 39.72954 | 116.35423 | 4110 ft | 185 kts | 175° |
| 2026-04-29 23:55 | 39.71679 | 116.35582 | 3983 ft | 183 kts | 175° |
| 2026-04-29 23:55 | 39.70407 | 116.35759 | 3746 ft | 184 kts | 174° |
| 2026-04-29 23:56 | 39.69156 | 116.35948 | 3529 ft | 175 kts | 174° |
| 2026-04-29 23:56 | 39.68005 | 116.36129 | 3284 ft | 158 kts | 174° |
| 2026-04-29 23:56 | 39.66949 | 116.36299 | 3114 ft | 155 kts | 174° |
| 2026-04-29 23:56 | 39.65881 | 116.36469 | 2886 ft | 154 kts | 174° |
| 2026-04-29 23:57 | 39.64827 | 116.36638 | 2687 ft | 152 kts | 174° |
| 2026-04-29 23:57 | 39.63769 | 116.36805 | 2484 ft | 153 kts | 174° |
| 2026-04-29 23:57 | 39.62711 | 116.36976 | 2283 ft | 153 kts | 173° |
| 2026-04-29 23:57 | 39.61648 | 116.37145 | 2070 ft | 153 kts | 173° |
| 2026-04-29 23:58 | 39.60591 | 116.37312 | 1868 ft | 153 kts | 173° |
| 2026-04-29 23:58 | 39.59547 | 116.37480 | 1681 ft | 153 kts | 173° |
| 2026-04-29 23:58 | 39.58492 | 116.37647 | 1455 ft | 152 kts | 173° |
| 2026-04-29 23:58 | 39.57449 | 116.37814 | 1256 ft | 150 kts | 173° |
| 2026-04-29 23:59 | 39.56413 | 116.37979 | 1052 ft | 150 kts | 173° |
| 2026-04-29 23:59 | 39.55382 | 116.38143 | 848 ft | 149 kts | 173° |
| 2026-04-29 23:59 | 39.54362 | 116.38306 | 657 ft | 146 kts | 173° |
| 2026-04-29 23:59 | 39.53358 | 116.38466 | 467 ft | 145 kts | 173° |
| 2026-04-30 00:00 | 39.52359 | 116.38624 | 277 ft | 144 kts | 173° |
| 2026-04-30 00:00 | 39.51364 | 116.38783 | 111 ft | 143 kts | 173° |
| 2026-04-30 00:00 | 39.50463 | 116.38927 | 100 ft | 113 kts | 173° |
| 2026-04-30 00:00 | 39.49840 | 116.39031 | 103 ft | 68 kts | 172° |
| 2026-04-30 00:01 | 39.49524 | 116.39080 | 106 ft | 24 kts | 169° |
| 2026-04-30 00:01 | 39.49441 | 116.39112 | 105 ft | 11 kts | 156° |
| 2026-04-30 00:01 | 39.49372 | 116.39160 | 104 ft | 12 kts | 143° |
| 2026-04-30 00:01 | 39.49295 | 116.39229 | 99 ft | 15 kts | 149° |
| 2026-04-30 00:02 | 39.49241 | 116.39272 | 99 ft | 1 kts | 148° |
| 2026-04-30 00:02 | 39.49241 | 116.39273 | 97 ft | 0 kts | 148° |
| 2026-04-30 00:02 | 39.49233 | 116.39278 | 98 ft | 3 kts | 148° |
| 2026-04-30 00:03 | 39.49203 | 116.39302 | 97 ft | 7 kts | 148° |
| 2026-04-30 00:03 | 39.49157 | 116.39341 | 96 ft | 9 kts | 146° |
| 2026-04-30 00:03 | 39.49100 | 116.39391 | 96 ft | 11 kts | 146° |
| 2026-04-30 00:03 | 39.49037 | 116.39447 | 95 ft | 12 kts | 143° |
| 2026-04-30 00:04 | 39.49005 | 116.39538 | 93 ft | 12 kts | 86° |
| 2026-04-30 00:04 | 39.49016 | 116.39651 | 91 ft | 13 kts | 82° |
| 2026-04-30 00:04 | 39.49028 | 116.39764 | 94 ft | 13 kts | 82° |
| 2026-04-30 00:04 | 39.49039 | 116.39877 | 98 ft | 13 kts | 82° |
| 2026-04-30 00:05 | 39.49050 | 116.39990 | 104 ft | 13 kts | 83° |
| 2026-04-30 00:05 | 39.49060 | 116.40102 | 105 ft | 12 kts | 83° |
| 2026-04-30 00:05 | 39.49073 | 116.40245 | 94 ft | 19 kts | 83° |
| 2026-04-30 00:05 | 39.49084 | 116.40331 | 92 ft | 9 kts | 66° |
| 2026-04-30 00:06 | 39.49143 | 116.40366 | 92 ft | 10 kts | 2° |
| 2026-04-30 00:06 | 39.49217 | 116.40360 | 93 ft | 11 kts | 355° |
| 2026-04-30 00:06 | 39.49296 | 116.40349 | 92 ft | 12 kts | 353° |
| 2026-04-30 00:06 | 39.49378 | 116.40335 | 92 ft | 12 kts | 352° |
| 2026-04-30 00:07 | 39.49465 | 116.40321 | 92 ft | 13 kts | 353° |
| 2026-04-30 00:07 | 39.49555 | 116.40307 | 93 ft | 13 kts | 353° |
| 2026-04-30 00:07 | 39.49645 | 116.40292 | 93 ft | 13 kts | 353° |
| 2026-04-30 00:07 | 39.49734 | 116.40278 | 92 ft | 13 kts | 353° |
| 2026-04-30 00:08 | 39.49824 | 116.40263 | 94 ft | 13 kts | 353° |
| 2026-04-30 00:08 | 39.49914 | 116.40249 | 92 ft | 13 kts | 353° |
| 2026-04-30 00:08 | 39.50002 | 116.40235 | 94 ft | 12 kts | 353° |
| 2026-04-30 00:08 | 39.50083 | 116.40228 | 93 ft | 12 kts | 15° |
| 2026-04-30 00:09 | 39.50115 | 116.40323 | 94 ft | 13 kts | 82° |
| 2026-04-30 00:09 | 39.50127 | 116.40441 | 93 ft | 14 kts | 83° |
| 2026-04-30 00:09 | 39.50136 | 116.40536 | 90 ft | 9 kts | 83° |
| 2026-04-30 00:09 | 39.50139 | 116.40572 | 90 ft | 0 kts | 83° |
| 2026-04-30 00:10 | 39.50139 | 116.40574 | 91 ft | 1 kts | 83° |
| 2026-04-30 00:10 | 39.50160 | 116.40604 | 91 ft | 6 kts | 22° |
| 2026-04-30 00:11 | 39.50204 | 116.40604 | 91 ft | 7 kts | 354° |
| 2026-04-30 00:11 | 39.50254 | 116.40598 | 92 ft | 8 kts | 354° |
| 2026-04-30 00:11 | 39.50310 | 116.40590 | 92 ft | 8 kts | 353° |
| 2026-04-30 00:11 | 39.50372 | 116.40587 | 94 ft | 9 kts | 9° |
| 2026-04-30 00:12 | 39.50426 | 116.40626 | 93 ft | 9 kts | 36° |
| 2026-04-30 00:12 | 39.50481 | 116.40676 | 92 ft | 10 kts | 33° |
| 2026-04-30 00:12 | 39.50542 | 116.40727 | 92 ft | 11 kts | 33° |
| 2026-04-30 00:12 | 39.50607 | 116.40783 | 94 ft | 11 kts | 33° |
| 2026-04-30 00:13 | 39.50641 | 116.40817 | 92 ft | 0 kts | 52° |
| 2026-04-30 00:14 | 39.50652 | 116.40842 | 92 ft | 7 kts | 67° |
| 2026-04-30 00:14 | 39.50684 | 116.40895 | 93 ft | 8 kts | 46° |
| 2026-04-30 00:14 | 39.50718 | 116.40954 | 94 ft | 9 kts | 57° |
| 2026-04-30 00:15 | 39.50745 | 116.41012 | 92 ft | 0 kts | 58° |